Time,TemperatureF,DewpointF,PressureIn,WindDirection,WindDirectionDegrees,WindSpeedMPH,WindSpeedGustMPH,Humidity,HourlyPrecipIn,Conditions,Clouds,dailyrainin,SolarRadiationWatts/m^2,SoftwareType,DateUTC
2013-03-30 00:00:00,53.8,52.7,30.03,SSW,202,6.0,12.1,96,0.00,,,0.00,0.00,VWS V14.01,2013-03-30 07:00:00,
2013-03-30 00:05:00,53.1,52.8,30.03,SSW,202,3.1,12.5,99,0.00,,,0.00,0.00,VWS V14.01,2013-03-30 07:05:00,
2013-03-30 00:10:00,53.2,53.0,30.03,East,90,1.6,12.5,99,0.00,,,0.00,0.00,VWS V14.01,2013-03-30 07:10:00,
2013-03-30 00:15:00,54.5,54.2,30.03,East,90,6.3,6.3,99,0.00,,,0.00,0.00,VWS V14.01,2013-03-30 07:15:00,
2013-03-30 00:20:00,54.7,53.8,30.03,SW,225,6.7,8.7,97,0.00,,,0.00,0.00,VWS V14.01,2013-03-30 07:20:00,
2013-03-30 00:25:00,54.1,53.3,30.03,South,180,6.0,9.0,97,0.00,,,0.00,0.00,VWS V14.01,2013-03-30 07:25:00,
2013-03-30 00:30:00,53.8,53.0,30.03,SSW,202,5.8,7.2,97,0.00,,,0.00,0.00,VWS V14.01,2013-03-30 07:30:00,
2013-03-30 00:35:00,54.1,53.3,30.03,South,180,4.3,8.7,97,0.00,,,0.00,0.00,VWS V14.01,2013-03-30 07:35:00,
2013-03-30 00:40:00,53.8,53.2,30.03,South,180,10.5,11.9,98,0.00,,,0.00,0.00,VWS V14.01,2013-03-30 07:40:00,
2013-03-30 00:45:00,52.9,52.9,30.03,SSW,202,5.6,5.6,100,0.00,,,0.00,0.00,VWS V14.01,2013-03-30 07:45:00,
2013-03-30 00:50:00,52.7,52.7,30.03,SSE,158,1.6,10.5,100,0.00,,,0.00,0.00,VWS V14.01,2013-03-30 07:50:00,
2013-03-30 00:55:00,52.9,52.9,30.03,North,0,3.4,10.5,100,0.00,,,0.00,0.00,VWS V14.01,2013-03-30 07:55:00,
2013-03-30 01:00:00,52.5,52.5,30.03,SSW,202,7.4,7.4,100,0.00,,,0.00,0.00,VWS V14.01,2013-03-30 08:00:00,
2013-03-30 01:05:00,52.3,52.3,30.03,South,180,2.9,11.0,100,0.00,,,0.00,0.00,VWS V14.01,2013-03-30 08:05:00,
2013-03-30 01:10:00,52.3,52.3,30.03,SSW,202,3.8,11.0,100,0.00,,,0.00,0.00,VWS V14.01,2013-03-30 08:10:00,
2013-03-30 01:15:00,52.3,52.3,30.03,SSE,158,7.6,11.0,100,0.00,,,0.00,0.00,VWS V14.01,2013-03-30 08:15:00,
2013-03-30 01:16:00,52.3,52.3,30.03,East,90,2.9,7.6,100,0.00,,,0.00,0.00,VWS V14.01,2013-03-30 08:16:00,
2013-03-30 01:21:00,52.3,52.3,30.03,SSW,202,3.8,7.6,100,0.00,,,0.00,0.00,VWS V14.01,2013-03-30 08:21:00,
2013-03-30 01:26:00,52.3,52.3,30.03,SSE,158,5.4,8.7,100,0.00,,,0.00,0.00,VWS V14.01,2013-03-30 08:26:00,
2013-03-30 01:30:00,52.2,52.2,30.03,SW,225,3.4,8.7,100,0.00,,,0.00,0.00,VWS V14.01,2013-03-30 08:30:00,
2013-03-30 01:31:00,52.2,52.2,30.03,SSW,202,2.7,5.4,100,0.00,,,0.00,0.00,VWS V14.01,2013-03-30 08:31:00,
2013-03-30 01:36:00,52.2,52.2,30.03,ENE,68,2.9,8.7,100,0.00,,,0.00,0.00,VWS V14.01,2013-03-30 08:36:00,
2013-03-30 01:42:00,52.2,52.2,30.03,NNE,22,0.0,8.7,100,0.00,,,0.00,0.00,VWS V14.01,2013-03-30 08:42:00,
2013-03-30 01:45:00,52.2,52.2,30.03,ENE,68,3.1,8.7,100,0.00,,,0.00,0.00,VWS V14.01,2013-03-30 08:45:00,
2013-03-30 01:47:00,52.3,52.3,30.03,North,0,3.4,6.3,100,0.00,,,0.00,0.00,VWS V14.01,2013-03-30 08:47:00,
2013-03-30 01:52:00,52.2,52.2,30.03,SSE,158,0.0,6.3,100,0.00,,,0.00,0.00,VWS V14.01,2013-03-30 08:52:00,
2013-03-30 01:58:00,52.3,52.3,30.03,East,90,3.8,6.3,100,0.00,,,0.00,0.00,VWS V14.01,2013-03-30 08:58:00,
2013-03-30 02:00:00,52.3,52.3,30.03,South,180,1.1,6.3,100,0.00,,,0.00,0.00,VWS V14.01,2013-03-30 09:00:00,
2013-03-30 02:03:00,52.3,52.3,30.03,South,180,3.1,5.6,100,0.00,,,0.00,0.00,VWS V14.01,2013-03-30 09:03:00,
2013-03-30 02:08:00,52.3,52.3,30.03,WNW,292,1.6,6.3,100,0.00,,,0.00,0.00,VWS V14.01,2013-03-30 09:08:00,
2013-03-30 02:13:00,52.3,52.3,30.03,NNW,338,3.4,6.5,100,0.00,,,0.00,0.00,VWS V14.01,2013-03-30 09:13:00,
2013-03-30 02:15:00,52.5,52.5,30.03,NNW,338,3.6,6.5,100,0.00,,,0.00,0.00,VWS V14.01,2013-03-30 09:15:00,
2013-03-30 02:18:00,52.5,52.5,30.03,SE,135,3.1,3.6,100,0.00,,,0.00,0.00,VWS V14.01,2013-03-30 09:18:00,
2013-03-30 02:23:00,52.5,52.5,30.03,NW,315,2.0,4.3,100,0.00,,,0.00,0.00,VWS V14.01,2013-03-30 09:23:00,
2013-03-30 02:28:00,52.5,52.5,30.03,ESE,112,1.1,4.3,100,0.00,,,0.00,0.00,VWS V14.01,2013-03-30 09:28:00,
2013-03-30 02:30:00,52.5,52.5,30.03,North,0,3.8,4.3,100,0.00,,,0.00,0.00,VWS V14.01,2013-03-30 09:30:00,
2013-03-30 02:34:00,52.3,52.3,30.03,NE,45,4.3,5.6,100,0.00,,,0.00,0.00,VWS V14.01,2013-03-30 09:34:00,
2013-03-30 02:39:00,52.3,52.3,30.03,NNE,22,2.9,5.6,100,0.00,,,0.00,0.00,VWS V14.01,2013-03-30 09:39:00,
2013-03-30 02:44:00,52.3,52.3,30.03,South,180,5.6,5.6,100,0.00,,,0.00,0.00,VWS V14.01,2013-03-30 09:44:00,
2013-03-30 02:45:00,52.3,52.3,30.03,East,90,2.9,5.6,100,0.00,,,0.00,0.00,VWS V14.01,2013-03-30 09:45:00,
2013-03-30 02:50:00,52.2,52.2,30.03,SSE,158,5.4,7.8,100,0.00,,,0.00,0.00,VWS V14.01,2013-03-30 09:50:00,
2013-03-30 02:56:00,52.2,52.2,30.03,WNW,292,2.0,7.8,100,0.00,,,0.00,0.00,VWS V14.01,2013-03-30 09:56:00,
2013-03-30 03:00:00,52.0,52.0,30.03,NE,45,1.6,7.8,100,0.00,,,0.00,0.00,VWS V14.01,2013-03-30 10:00:00,
2013-03-30 03:01:00,52.2,52.2,30.03,West,270,6.3,6.3,100,0.00,,,0.00,0.00,VWS V14.01,2013-03-30 10:01:00,
2013-03-30 03:06:00,52.0,52.0,30.03,WSW,248,3.1,6.5,100,0.00,,,0.00,0.00,VWS V14.01,2013-03-30 10:06:00,
2013-03-30 03:11:00,52.0,52.0,30.00,East,90,0.9,6.5,100,0.00,,,0.00,0.00,VWS V14.01,2013-03-30 10:11:00,
2013-03-30 03:15:00,52.0,52.0,30.00,East,90,3.6,6.5,100,0.00,,,0.00,0.00,VWS V14.01,2013-03-30 10:15:00,
2013-03-30 03:16:00,52.2,52.2,30.00,NNE,22,2.7,4.3,100,0.00,,,0.00,0.00,VWS V14.01,2013-03-30 10:16:00,
2013-03-30 03:21:00,52.0,52.0,30.00,SW,225,1.6,6.5,100,0.00,,,0.00,0.00,VWS V14.01,2013-03-30 10:21:00,
2013-03-30 03:26:00,52.2,52.2,30.00,ESE,112,5.4,7.6,100,0.00,,,0.00,0.00,VWS V14.01,2013-03-30 10:26:00,
2013-03-30 03:30:00,52.2,52.2,30.00,SSE,158,4.3,7.6,100,0.00,,,0.00,0.00,VWS V14.01,2013-03-30 10:30:00,
2013-03-30 03:31:00,52.0,52.0,30.00,SE,135,1.1,4.3,100,0.00,,,0.00,0.00,VWS V14.01,2013-03-30 10:31:00,
2013-03-30 03:36:00,52.0,52.0,30.00,NNE,22,2.9,4.3,100,0.00,,,0.00,0.00,VWS V14.01,2013-03-30 10:36:00,
2013-03-30 03:41:00,52.0,52.0,30.00,NE,45,1.3,5.4,100,0.00,,,0.00,0.00,VWS V14.01,2013-03-30 10:41:00,
2013-03-30 03:45:00,52.0,52.0,30.00,SSW,202,2.9,5.4,100,0.00,,,0.00,0.00,VWS V14.01,2013-03-30 10:45:00,
2013-03-30 03:47:00,52.0,52.0,30.00,South,180,0.0,2.9,100,0.00,,,0.00,0.00,VWS V14.01,2013-03-30 10:47:00,
2013-03-30 03:52:00,51.8,51.8,30.00,South,180,0.0,4.7,100,0.00,,,0.00,0.00,VWS V14.01,2013-03-30 10:52:00,
2013-03-30 03:57:00,51.8,51.8,30.00,South,180,0.0,4.7,100,0.00,,,0.00,0.00,VWS V14.01,2013-03-30 10:57:00,
2013-03-30 04:00:00,51.8,51.8,30.00,South,180,0.0,4.7,100,0.00,,,0.00,0.00,VWS V14.01,2013-03-30 11:00:00,
2013-03-30 04:02:00,52.0,52.0,30.00,South,180,0.0,0.0,100,0.00,,,0.00,0.00,VWS V14.01,2013-03-30 11:02:00,
2013-03-30 04:07:00,52.0,52.0,30.00,South,180,0.0,0.0,100,0.00,,,0.00,0.00,VWS V14.01,2013-03-30 11:07:00,
2013-03-30 04:12:00,52.0,52.0,30.00,South,180,0.0,0.0,100,0.00,,,0.00,0.00,VWS V14.01,2013-03-30 11:12:00,
2013-03-30 04:15:00,52.0,52.0,30.00,South,180,0.0,0.0,100,0.00,,,0.00,0.00,VWS V14.01,2013-03-30 11:15:00,
2013-03-30 04:17:00,52.0,52.0,30.00,South,180,0.0,0.0,100,0.00,,,0.00,0.00,VWS V14.01,2013-03-30 11:17:00,
2013-03-30 04:22:00,52.0,52.0,30.00,South,180,0.0,0.0,100,0.00,,,0.00,0.00,VWS V14.01,2013-03-30 11:22:00,
2013-03-30 04:27:00,52.0,52.0,30.00,South,180,0.0,0.0,100,0.00,,,0.00,0.00,VWS V14.01,2013-03-30 11:27:00,
2013-03-30 04:30:00,52.2,52.2,30.00,South,180,2.2,2.2,100,0.00,,,0.00,0.00,VWS V14.01,2013-03-30 11:30:00,
2013-03-30 04:32:00,52.2,52.2,30.00,SW,225,2.7,4.7,100,0.00,,,0.00,0.00,VWS V14.01,2013-03-30 11:32:00,
2013-03-30 04:37:00,52.5,52.5,30.00,SSW,202,3.4,6.5,100,0.00,,,0.00,0.00,VWS V14.01,2013-03-30 11:37:00,
2013-03-30 04:42:00,52.7,52.7,30.00,SE,135,0.0,6.5,100,0.00,,,0.00,0.00,VWS V14.01,2013-03-30 11:42:00,
2013-03-30 04:45:00,52.5,52.5,30.00,SE,135,0.0,6.5,100,0.00,,,0.00,0.00,VWS V14.01,2013-03-30 11:45:00,
2013-03-30 04:47:00,52.5,52.5,30.00,SE,135,0.0,0.0,100,0.00,,,0.00,0.00,VWS V14.01,2013-03-30 11:47:00,
2013-03-30 04:52:00,52.5,52.5,30.00,South,180,2.7,2.9,100,0.00,,,0.00,0.00,VWS V14.01,2013-03-30 11:52:00,
2013-03-30 04:57:00,52.7,52.7,30.00,SW,225,0.0,4.0,100,0.00,,,0.00,0.00,VWS V14.01,2013-03-30 11:57:00,
2013-03-30 05:00:00,52.7,52.7,30.00,WNW,292,0.0,4.0,100,0.00,,,0.00,0.00,VWS V14.01,2013-03-30 12:00:00,
2013-03-30 05:02:00,52.7,52.7,30.00,SW,225,0.0,0.0,100,0.00,,,0.00,0.00,VWS V14.01,2013-03-30 12:02:00,
2013-03-30 05:07:00,52.7,52.7,30.00,SW,225,0.0,0.0,100,0.00,,,0.00,0.00,VWS V14.01,2013-03-30 12:07:00,
2013-03-30 05:13:00,52.5,52.5,30.00,SW,225,0.0,0.0,100,0.00,,,0.00,0.00,VWS V14.01,2013-03-30 12:13:00,
2013-03-30 05:15:00,52.5,52.5,30.00,SSW,202,2.0,2.0,100,0.00,,,0.00,0.00,VWS V14.01,2013-03-30 12:15:00,
2013-03-30 05:18:00,52.3,52.3,30.00,SSW,202,3.6,7.4,100,0.00,,,0.00,0.00,VWS V14.01,2013-03-30 12:18:00,
2013-03-30 05:23:00,52.2,52.2,30.00,SSW,202,3.8,7.4,100,0.00,,,0.00,0.00,VWS V14.01,2013-03-30 12:23:00,
2013-03-30 05:28:00,52.2,52.2,30.00,SE,135,2.9,7.8,100,0.00,,,0.00,0.00,VWS V14.01,2013-03-30 12:28:00,
2013-03-30 05:30:00,52.0,52.0,30.00,WSW,248,1.1,7.8,100,0.00,,,0.00,0.00,VWS V14.01,2013-03-30 12:30:00,
2013-03-30 05:33:00,52.0,52.0,30.00,SE,135,4.0,4.5,100,0.00,,,0.00,0.00,VWS V14.01,2013-03-30 12:33:00,
2013-03-30 05:38:00,52.0,52.0,30.00,SSW,202,3.4,6.0,100,0.00,,,0.00,0.00,VWS V14.01,2013-03-30 12:38:00,
2013-03-30 05:43:00,51.8,51.8,30.00,WSW,248,5.8,8.5,100,0.00,,,0.00,0.00,VWS V14.01,2013-03-30 12:43:00,
2013-03-30 05:45:00,51.8,51.8,30.00,ESE,112,2.9,8.5,100,0.00,,,0.00,0.00,VWS V14.01,2013-03-30 12:45:00,
2013-03-30 05:48:00,51.8,51.8,30.00,SSW,202,2.2,5.4,100,0.00,,,0.00,0.00,VWS V14.01,2013-03-30 12:48:00,
2013-03-30 05:53:00,51.8,51.8,30.00,SSE,158,6.0,6.0,100,0.00,,,0.00,0.00,VWS V14.01,2013-03-30 12:53:00,
2013-03-30 05:59:00,51.6,51.6,30.00,SW,225,0.9,8.1,100,0.00,,,0.00,0.00,VWS V14.01,2013-03-30 12:59:00,
2013-03-30 06:00:00,51.6,51.6,30.00,WSW,248,6.3,8.1,100,0.00,,,0.00,0.00,VWS V14.01,2013-03-30 13:00:00,
2013-03-30 06:04:00,51.8,51.8,30.00,SSW,202,6.0,10.7,100,0.00,,,0.00,0.00,VWS V14.01,2013-03-30 13:04:00,
2013-03-30 06:09:00,51.8,51.8,30.00,SSW,202,3.6,10.7,100,0.00,,,0.00,0.00,VWS V14.01,2013-03-30 13:09:00,
2013-03-30 06:14:00,51.8,51.8,30.00,SSE,158,8.1,12.1,100,0.00,,,0.00,0.00,VWS V14.01,2013-03-30 13:14:00,
2013-03-30 06:15:00,51.8,51.8,30.00,SSW,202,10.7,12.1,100,0.00,,,0.00,0.00,VWS V14.01,2013-03-30 13:15:00,
2013-03-30 06:19:00,51.8,51.8,30.00,South,180,8.1,12.8,100,0.00,,,0.00,0.00,VWS V14.01,2013-03-30 13:19:00,
2013-03-30 06:25:00,51.8,51.8,30.00,SSW,202,4.3,12.8,100,0.00,,,0.00,0.00,VWS V14.01,2013-03-30 13:25:00,
2013-03-30 06:30:00,51.8,51.8,30.00,SE,135,6.5,12.8,100,0.00,,,0.00,0.00,VWS V14.01,2013-03-30 13:30:00,
2013-03-30 06:35:00,51.8,51.8,30.00,South,180,3.4,11.0,100,0.00,,,0.00,0.00,VWS V14.01,2013-03-30 13:35:00,
2013-03-30 06:40:00,51.8,51.8,30.00,WSW,248,2.5,11.0,100,0.00,,,0.00,0.00,VWS V14.01,2013-03-30 13:40:00,
2013-03-30 06:45:00,52.0,52.0,30.00,South,180,0.0,11.0,100,0.00,,,0.00,0.00,VWS V14.01,2013-03-30 13:45:00,
2013-03-30 06:50:00,52.0,52.0,30.00,South,180,4.0,8.7,100,0.00,,,0.00,0.00,VWS V14.01,2013-03-30 13:50:00,
2013-03-30 06:56:00,52.0,52.0,30.00,NE,45,5.6,11.0,100,0.00,,,0.00,0.00,VWS V14.01,2013-03-30 13:56:00,
2013-03-30 07:00:00,52.2,52.2,30.00,South,180,7.6,11.0,100,0.00,,,0.00,0.00,VWS V14.01,2013-03-30 14:00:00,
2013-03-30 07:01:00,52.0,52.0,30.00,South,180,6.0,7.6,100,0.00,,,0.00,0.00,VWS V14.01,2013-03-30 14:01:00,
2013-03-30 07:06:00,52.0,52.0,30.00,SSW,202,3.4,12.5,100,0.00,,,0.00,0.00,VWS V14.01,2013-03-30 14:06:00,
2013-03-30 07:12:00,52.0,52.0,30.00,South,180,5.6,12.5,100,0.00,,,0.00,0.00,VWS V14.01,2013-03-30 14:12:00,
2013-03-30 07:15:00,52.0,52.0,30.00,SSE,158,3.8,12.5,100,0.00,,,0.00,0.00,VWS V14.01,2013-03-30 14:15:00,
2013-03-30 07:17:00,52.0,52.0,30.00,SSE,158,3.8,6.5,100,0.00,,,0.00,0.00,VWS V14.01,2013-03-30 14:17:00,
2013-03-30 07:22:00,52.0,52.0,30.03,WSW,248,4.7,13.0,100,0.00,,,0.00,0.00,VWS V14.01,2013-03-30 14:22:00,
2013-03-30 07:27:00,52.0,52.0,30.03,SW,225,6.3,13.0,100,0.00,,,0.00,0.00,VWS V14.01,2013-03-30 14:27:00,
2013-03-30 07:30:00,52.0,52.0,30.03,WSW,248,7.8,13.0,100,0.00,,,0.00,0.00,VWS V14.01,2013-03-30 14:30:00,
2013-03-30 07:34:00,52.0,52.0,30.03,SSE,158,4.3,9.6,100,0.00,,,0.00,0.00,VWS V14.01,2013-03-30 14:34:00,
2013-03-30 07:39:00,52.0,52.0,30.03,SSW,202,13.0,13.0,100,0.00,,,0.00,0.00,VWS V14.01,2013-03-30 14:39:00,
2013-03-30 07:44:00,52.2,52.2,30.03,SSE,158,4.9,13.0,100,0.00,,,0.00,0.00,VWS V14.01,2013-03-30 14:44:00,
2013-03-30 07:45:00,52.2,52.2,30.03,ESE,112,6.0,13.0,100,0.00,,,0.00,0.00,VWS V14.01,2013-03-30 14:45:00,
2013-03-30 07:49:00,52.2,52.2,30.03,South,180,5.8,15.7,100,0.00,,,0.00,0.00,VWS V14.01,2013-03-30 14:49:00,
2013-03-30 07:54:00,52.2,52.2,30.03,SSE,158,7.6,15.7,100,0.00,,,0.00,0.00,VWS V14.01,2013-03-30 14:54:00,
2013-03-30 07:59:00,52.2,52.2,30.03,NE,45,3.1,15.7,100,0.00,,,0.00,0.00,VWS V14.01,2013-03-30 14:59:00,
2013-03-30 08:00:00,52.2,52.2,30.03,SSW,202,5.4,15.7,100,0.00,,,0.00,0.00,VWS V14.01,2013-03-30 15:00:00,
2013-03-30 08:04:00,52.2,52.2,30.03,WSW,248,2.2,8.1,100,0.00,,,0.00,0.00,VWS V14.01,2013-03-30 15:04:00,
2013-03-30 08:10:00,52.2,52.2,30.03,South,180,1.3,8.1,100,0.00,,,0.00,0.00,VWS V14.01,2013-03-30 15:10:00,
2013-03-30 08:15:00,52.3,52.3,30.03,East,90,0.9,3.6,100,0.00,,,0.00,0.00,VWS V14.01,2013-03-30 15:15:00,
2013-03-30 08:20:00,52.3,52.3,30.03,SE,135,2.2,4.3,100,0.00,,,0.00,0.00,VWS V14.01,2013-03-30 15:20:00,
2013-03-30 08:26:00,52.3,52.3,30.03,SSE,158,7.4,7.4,100,0.00,,,0.00,0.00,VWS V14.01,2013-03-30 15:26:00,
2013-03-30 08:30:00,52.3,52.3,30.03,WNW,292,0.9,7.4,100,0.00,,,0.00,0.00,VWS V14.01,2013-03-30 15:30:00,
2013-03-30 08:31:00,52.3,52.3,30.03,South,180,0.0,1.1,100,0.00,,,0.00,0.00,VWS V14.01,2013-03-30 15:31:00,
2013-03-30 08:36:00,52.3,52.3,30.03,NW,315,4.0,8.1,100,0.00,,,0.00,0.00,VWS V14.01,2013-03-30 15:36:00,
2013-03-30 08:41:00,52.5,52.5,30.03,SE,135,2.9,8.1,100,0.00,,,0.00,0.00,VWS V14.01,2013-03-30 15:41:00,
2013-03-30 08:45:00,52.5,52.5,30.03,ESE,112,2.0,8.1,100,0.00,,,0.00,0.00,VWS V14.01,2013-03-30 15:45:00,
2013-03-30 08:46:00,52.5,52.5,30.03,SSE,158,2.9,4.0,100,0.00,,,0.00,0.00,VWS V14.01,2013-03-30 15:46:00,
2013-03-30 08:51:00,52.7,52.7,30.03,East,90,2.5,5.6,100,0.00,,,0.00,0.00,VWS V14.01,2013-03-30 15:51:00,
2013-03-30 08:56:00,52.9,52.9,30.03,SE,135,6.3,7.4,100,0.00,,,0.00,0.00,VWS V14.01,2013-03-30 15:56:00,
2013-03-30 09:00:00,52.7,52.7,30.03,SSW,202,5.6,12.1,100,0.00,,,0.00,0.00,VWS V14.01,2013-03-30 16:00:00,
2013-03-30 09:01:00,52.9,52.9,30.03,WSW,248,3.1,5.6,100,0.00,,,0.00,0.00,VWS V14.01,2013-03-30 16:01:00,
2013-03-30 09:06:00,52.9,52.9,30.03,SE,135,2.7,8.1,100,0.00,,,0.00,0.00,VWS V14.01,2013-03-30 16:06:00,
2013-03-30 09:11:00,52.9,52.9,30.03,SSW,202,5.6,8.1,100,0.00,,,0.00,0.00,VWS V14.01,2013-03-30 16:11:00,
2013-03-30 09:15:00,53.1,53.1,30.03,ESE,112,0.0,8.1,100,0.00,,,0.00,0.00,VWS V14.01,2013-03-30 16:15:00,
2013-03-30 09:18:00,53.2,53.2,30.03,SSE,158,2.2,6.0,100,0.00,,,0.00,0.00,VWS V14.01,2013-03-30 16:18:00,
2013-03-30 09:23:00,53.2,53.2,30.03,SSW,202,8.1,11.0,100,0.00,,,0.00,0.00,VWS V14.01,2013-03-30 16:23:00,
2013-03-30 09:28:00,53.4,53.4,30.03,SE,135,5.4,11.0,100,0.00,,,0.00,0.00,VWS V14.01,2013-03-30 16:28:00,
2013-03-30 09:30:00,53.6,53.6,30.03,WSW,248,5.4,11.0,100,0.00,,,0.00,0.00,VWS V14.01,2013-03-30 16:30:00,
2013-03-30 09:33:00,54.0,54.0,30.03,WSW,248,3.6,7.8,100,0.00,,,0.00,0.00,VWS V14.01,2013-03-30 16:33:00,
2013-03-30 09:38:00,54.1,54.1,30.03,SW,225,7.2,7.8,100,0.00,,,0.00,0.00,VWS V14.01,2013-03-30 16:38:00,
2013-03-30 09:43:00,54.1,54.1,30.03,East,90,2.7,10.3,100,0.00,,,0.00,0.00,VWS V14.01,2013-03-30 16:43:00,
2013-03-30 09:45:00,54.1,54.1,30.03,SSE,158,4.9,10.3,100,0.00,,,0.00,0.00,VWS V14.01,2013-03-30 16:45:00,
2013-03-30 09:48:00,54.0,54.0,30.03,SSW,202,3.6,9.0,100,0.00,,,0.00,0.00,VWS V14.01,2013-03-30 16:48:00,
2013-03-30 09:53:00,54.0,54.0,30.03,South,180,2.2,9.0,100,0.00,,,0.00,0.00,VWS V14.01,2013-03-30 16:53:00,
2013-03-30 09:58:00,54.1,54.1,30.03,South,180,7.2,9.6,100,0.00,,,0.00,0.00,VWS V14.01,2013-03-30 16:58:00,
2013-03-30 10:00:00,54.1,54.1,30.03,SSW,202,6.0,9.6,100,0.00,,,0.00,0.00,VWS V14.01,2013-03-30 17:00:00,
2013-03-30 10:03:00,54.3,54.3,30.03,North,0,10.1,10.1,100,0.00,,,0.00,0.00,VWS V14.01,2013-03-30 17:03:00,
2013-03-30 10:09:00,54.5,54.5,30.03,SSE,158,6.5,10.1,100,0.00,,,0.00,0.00,VWS V14.01,2013-03-30 17:09:00,
2013-03-30 10:14:00,54.3,54.3,30.03,South,180,8.1,12.5,100,0.00,,,0.00,0.00,VWS V14.01,2013-03-30 17:14:00,
2013-03-30 10:15:00,54.3,54.3,30.03,SSE,158,4.3,12.5,100,0.00,,,0.00,0.00,VWS V14.01,2013-03-30 17:15:00,
2013-03-30 10:19:00,54.7,54.7,30.03,SE,135,6.3,8.1,100,0.00,,,0.00,0.00,VWS V14.01,2013-03-30 17:19:00,
2013-03-30 10:24:00,55.0,55.0,30.03,SSE,158,4.3,8.1,100,0.00,,,0.00,0.00,VWS V14.01,2013-03-30 17:24:00,
2013-03-30 10:29:00,55.4,55.4,30.03,SW,225,1.6,9.2,100,0.00,,,0.00,0.00,VWS V14.01,2013-03-30 17:29:00,
2013-03-30 10:30:00,55.4,55.4,30.03,SW,225,1.6,9.2,100,0.00,,,0.00,0.00,VWS V14.01,2013-03-30 17:30:00,
2013-03-30 10:35:00,55.4,55.1,30.03,SSW,202,6.3,10.7,99,0.00,,,0.00,0.00,VWS V14.01,2013-03-30 17:35:00,
2013-03-30 10:40:00,55.6,55.3,30.03,South,180,6.3,10.7,99,0.00,,,0.00,0.00,VWS V14.01,2013-03-30 17:40:00,
2013-03-30 10:45:00,55.8,55.5,30.03,SSE,158,4.9,10.7,99,0.00,,,0.00,0.00,VWS V14.01,2013-03-30 17:45:00,
2013-03-30 10:50:00,55.6,55.0,30.03,SSW,202,4.3,8.1,98,0.00,,,0.00,0.00,VWS V14.01,2013-03-30 17:50:00,
2013-03-30 10:55:00,55.2,55.0,30.03,South,180,7.4,8.7,99,0.00,,,0.00,0.00,VWS V14.01,2013-03-30 17:55:00,
2013-03-30 11:00:00,55.0,54.8,30.03,SSW,202,2.9,3.6,99,0.00,,,0.00,0.00,VWS V14.01,2013-03-30 18:00:00,
2013-03-30 11:05:00,55.2,55.0,30.03,South,180,3.6,10.7,99,0.00,,,0.00,0.00,VWS V14.01,2013-03-30 18:05:00,
2013-03-30 11:10:00,55.2,55.0,30.03,West,270,6.3,13.6,99,0.00,,,0.00,0.00,VWS V14.01,2013-03-30 18:10:00,
2013-03-30 11:15:00,55.4,54.8,30.03,SW,225,5.6,12.5,98,0.00,,,0.00,0.00,VWS V14.01,2013-03-30 18:15:00,
2013-03-30 11:21:00,55.6,55.3,30.03,SE,135,4.3,12.5,99,0.00,,,0.00,0.00,VWS V14.01,2013-03-30 18:21:00,
2013-03-30 11:26:00,55.6,55.0,30.06,SW,225,3.8,12.5,98,0.00,,,0.00,0.00,VWS V14.01,2013-03-30 18:26:00,
2013-03-30 11:30:00,55.8,55.5,30.06,SSE,158,8.7,12.5,99,0.00,,,0.00,0.00,VWS V14.01,2013-03-30 18:30:00,
2013-03-30 11:31:00,55.8,55.2,30.06,SSE,158,3.6,8.7,98,0.00,,,0.00,0.00,VWS V14.01,2013-03-30 18:31:00,
2013-03-30 11:36:00,55.9,55.4,30.06,South,180,3.6,8.7,98,0.00,,,0.00,0.00,VWS V14.01,2013-03-30 18:36:00,
2013-03-30 11:41:00,55.9,55.1,30.06,SSW,202,4.9,8.7,97,0.00,,,0.00,0.00,VWS V14.01,2013-03-30 18:41:00,
2013-03-30 11:45:00,56.1,55.3,30.06,SE,135,5.4,8.7,97,0.00,,,0.00,0.00,VWS V14.01,2013-03-30 18:45:00,
2013-03-30 11:46:00,56.1,55.3,30.06,SE,135,6.3,7.2,97,0.00,,,0.00,0.00,VWS V14.01,2013-03-30 18:46:00,
2013-03-30 11:51:00,56.1,55.0,30.06,ESE,112,4.3,8.5,96,0.00,,,0.00,0.00,VWS V14.01,2013-03-30 18:51:00,
2013-03-30 11:56:00,56.3,55.2,30.06,SSE,158,4.0,8.5,96,0.00,,,0.00,0.00,VWS V14.01,2013-03-30 18:56:00,
2013-03-30 12:00:00,55.6,54.5,30.06,WSW,248,4.9,11.0,96,0.00,,,0.00,0.00,VWS V14.01,2013-03-30 19:00:00,
2013-03-30 12:01:00,55.8,54.6,30.06,South,180,6.0,6.0,96,0.00,,,0.00,0.00,VWS V14.01,2013-03-30 19:01:00,
2013-03-30 12:06:00,55.6,54.5,30.06,South,180,2.0,7.6,96,0.00,,,0.00,0.00,VWS V14.01,2013-03-30 19:06:00,
2013-03-30 12:11:00,56.1,55.3,30.06,SSE,158,2.5,7.6,97,0.00,,,0.00,0.00,VWS V14.01,2013-03-30 19:11:00,
2013-03-30 12:15:00,56.1,55.3,30.06,SSW,202,8.7,8.7,97,0.00,,,0.00,0.00,VWS V14.01,2013-03-30 19:15:00,
2013-03-30 12:16:00,56.5,55.4,30.06,SE,135,8.1,8.7,96,0.00,,,0.00,0.00,VWS V14.01,2013-03-30 19:16:00,
2013-03-30 12:21:00,57.0,55.6,30.06,SE,135,7.8,8.7,95,0.00,,,0.00,0.00,VWS V14.01,2013-03-30 19:21:00,
2013-03-30 12:26:00,57.0,55.3,30.06,South,180,2.9,8.7,94,0.00,,,0.00,0.00,VWS V14.01,2013-03-30 19:26:00,
2013-03-30 12:30:00,57.2,55.5,30.06,SE,135,1.3,8.7,94,0.00,,,0.00,0.00,VWS V14.01,2013-03-30 19:30:00,
2013-03-30 12:31:00,57.2,54.9,30.06,SSE,158,5.4,10.7,92,0.00,,,0.00,0.00,VWS V14.01,2013-03-30 19:31:00,
2013-03-30 12:37:00,56.7,54.7,30.06,SSW,202,3.4,10.7,93,0.00,,,0.00,0.00,VWS V14.01,2013-03-30 19:37:00,
2013-03-30 12:42:00,56.7,54.7,30.06,SSW,202,4.3,10.7,93,0.00,,,0.00,0.00,VWS V14.01,2013-03-30 19:42:00,
2013-03-30 12:45:00,56.7,54.7,30.06,SSW,202,6.7,10.7,93,0.00,,,0.00,0.00,VWS V14.01,2013-03-30 19:45:00,
2013-03-30 12:47:00,57.2,55.2,30.06,SE,135,2.9,7.4,93,0.00,,,0.00,0.00,VWS V14.01,2013-03-30 19:47:00,
2013-03-30 12:52:00,57.4,54.8,30.06,SSE,158,2.7,7.4,91,0.00,,,0.00,0.00,VWS V14.01,2013-03-30 19:52:00,
2013-03-30 12:57:00,57.9,55.3,30.06,ESE,112,3.1,7.4,91,0.00,,,0.00,0.00,VWS V14.01,2013-03-30 19:57:00,
2013-03-30 13:00:00,57.9,55.0,30.06,SE,135,4.0,7.4,90,0.00,,,0.00,0.00,VWS V14.01,2013-03-30 20:00:00,
2013-03-30 13:02:00,58.5,55.5,30.06,SSE,158,2.5,4.9,90,0.00,,,0.00,0.00,VWS V14.01,2013-03-30 20:02:00,
2013-03-30 13:07:00,59.2,56.0,30.06,SSE,158,0.0,4.9,89,0.00,,,0.00,0.00,VWS V14.01,2013-03-30 20:07:00,
2013-03-30 13:12:00,60.4,57.2,30.06,East,90,2.0,4.9,89,0.00,,,0.00,0.00,VWS V14.01,2013-03-30 20:12:00,
2013-03-30 13:15:00,61.2,58.2,30.06,East,90,4.0,4.9,90,0.00,,,0.00,0.00,VWS V14.01,2013-03-30 20:15:00,
2013-03-30 13:17:00,61.5,57.9,30.06,East,90,1.3,4.0,88,0.00,,,0.00,0.00,VWS V14.01,2013-03-30 20:17:00,
2013-03-30 13:22:00,62.6,57.4,30.03,NW,315,1.1,5.4,83,0.00,,,0.00,0.00,VWS V14.01,2013-03-30 20:22:00,
2013-03-30 13:27:00,63.3,58.1,30.03,ENE,68,2.0,5.4,83,0.00,,,0.00,0.00,VWS V14.01,2013-03-30 20:27:00,
2013-03-30 13:30:00,63.3,57.0,30.03,ENE,68,1.1,5.4,80,0.00,,,0.00,0.00,VWS V14.01,2013-03-30 20:30:00,
2013-03-30 13:33:00,63.3,56.7,30.03,NE,45,4.0,5.8,79,0.00,,,0.00,0.00,VWS V14.01,2013-03-30 20:33:00,
2013-03-30 13:38:00,63.9,56.9,30.03,East,90,2.0,5.8,78,0.00,,,0.00,0.00,VWS V14.01,2013-03-30 20:38:00,
2013-03-30 13:43:00,63.9,56.9,30.03,NNE,22,1.6,5.8,78,0.00,,,0.00,0.00,VWS V14.01,2013-03-30 20:43:00,
2013-03-30 13:45:00,63.9,56.9,30.03,NNE,22,4.9,5.8,78,0.00,,,0.00,0.00,VWS V14.01,2013-03-30 20:45:00,
2013-03-30 13:48:00,63.5,55.8,30.03,North,0,0.0,7.8,76,0.00,,,0.00,0.00,VWS V14.01,2013-03-30 20:48:00,
2013-03-30 13:53:00,64.8,57.0,30.03,NE,45,4.3,7.8,76,0.00,,,0.00,0.00,VWS V14.01,2013-03-30 20:53:00,
2013-03-30 13:58:00,64.8,54.4,30.03,SSW,202,3.4,7.8,69,0.00,,,0.00,0.00,VWS V14.01,2013-03-30 20:58:00,
2013-03-30 14:00:00,63.9,53.5,30.03,SW,225,5.4,8.7,69,0.00,,,0.00,0.00,VWS V14.01,2013-03-30 21:00:00,
2013-03-30 14:03:00,64.0,53.3,30.03,SSW,202,7.6,8.5,68,0.00,,,0.00,0.00,VWS V14.01,2013-03-30 21:03:00,
2013-03-30 14:08:00,61.5,53.2,30.03,SW,225,8.7,10.3,74,0.00,,,0.00,0.00,VWS V14.01,2013-03-30 21:08:00,
2013-03-30 14:13:00,60.1,53.9,30.03,South,180,8.7,12.1,80,0.00,,,0.00,0.00,VWS V14.01,2013-03-30 21:13:00,
2013-03-30 14:15:00,60.1,53.9,30.03,SSW,202,7.2,12.1,80,0.00,,,0.00,0.00,VWS V14.01,2013-03-30 21:15:00,
2013-03-30 14:18:00,59.9,54.4,30.03,South,180,2.7,8.7,82,0.00,,,0.00,0.00,VWS V14.01,2013-03-30 21:18:00,
2013-03-30 14:24:00,61.3,55.5,30.03,WSW,248,6.0,8.7,81,0.00,,,0.00,0.00,VWS V14.01,2013-03-30 21:24:00,
2013-03-30 14:29:00,61.0,55.5,30.03,SSW,202,4.3,10.7,82,0.00,,,0.00,0.00,VWS V14.01,2013-03-30 21:29:00,
2013-03-30 14:30:00,61.2,55.3,30.03,South,180,8.1,10.7,81,0.00,,,0.00,0.00,VWS V14.01,2013-03-30 21:30:00,
2013-03-30 14:34:00,61.9,55.3,30.03,SSW,202,3.4,12.8,79,0.00,,,0.00,0.00,VWS V14.01,2013-03-30 21:34:00,
2013-03-30 14:39:00,61.9,55.3,30.03,SSE,158,6.5,12.8,79,0.00,,,0.00,0.00,VWS V14.01,2013-03-30 21:39:00,
2013-03-30 14:44:00,61.5,53.5,30.03,South,180,10.3,12.8,75,0.00,,,0.00,0.00,VWS V14.01,2013-03-30 21:44:00,
2013-03-30 14:45:00,61.5,53.5,30.03,South,180,10.3,12.8,75,0.00,,,0.00,0.00,VWS V14.01,2013-03-30 21:45:00,
2013-03-30 14:49:00,60.8,52.5,30.03,SW,225,4.7,10.3,74,0.00,,,0.00,0.00,VWS V14.01,2013-03-30 21:49:00,
2013-03-30 14:55:00,60.6,53.0,30.00,West,270,2.0,11.9,76,0.00,,,0.00,0.00,VWS V14.01,2013-03-30 21:55:00,
2013-03-30 15:00:00,60.6,53.0,30.00,South,180,6.7,11.9,76,0.00,,,0.00,0.00,VWS V14.01,2013-03-30 22:00:00,
2013-03-30 15:05:00,60.3,53.7,30.00,SSE,158,6.5,19.7,79,0.00,,,0.00,0.00,VWS V14.01,2013-03-30 22:05:00,
2013-03-30 15:10:00,60.3,53.7,30.03,SSW,202,7.6,19.7,79,0.00,,,0.00,0.00,VWS V14.01,2013-03-30 22:10:00,
2013-03-30 15:15:00,59.7,53.9,30.03,South,180,2.5,19.7,81,0.00,,,0.00,0.00,VWS V14.01,2013-03-30 22:15:00,
2013-03-30 15:20:00,59.9,54.4,30.03,SSE,158,3.1,10.7,82,0.00,,,0.00,0.00,VWS V14.01,2013-03-30 22:20:00,
2013-03-30 15:25:00,59.2,53.7,30.00,SSE,158,2.5,12.1,82,0.00,,,0.00,0.00,VWS V14.01,2013-03-30 22:25:00,
2013-03-30 15:30:00,59.2,54.0,30.00,SW,225,6.0,6.0,83,0.00,,,0.00,0.00,VWS V14.01,2013-03-30 22:30:00,
2013-03-30 15:35:00,59.4,54.2,30.00,NW,315,6.3,12.3,83,0.00,,,0.00,0.00,VWS V14.01,2013-03-30 22:35:00,
2013-03-30 15:41:00,59.2,54.0,30.00,South,180,6.3,14.3,83,0.00,,,0.00,0.00,VWS V14.01,2013-03-30 22:41:00,
2013-03-30 15:45:00,59.4,54.2,30.00,NNW,338,2.0,14.3,83,0.00,,,0.00,0.00,VWS V14.01,2013-03-30 22:45:00,
2013-03-30 15:46:00,59.5,54.4,30.00,NNE,22,2.9,6.0,83,0.00,,,0.00,0.00,VWS V14.01,2013-03-30 22:46:00,
2013-03-30 15:52:00,60.1,54.2,30.00,SW,225,6.0,6.3,81,0.00,,,0.00,0.00,VWS V14.01,2013-03-30 22:52:00,
2013-03-30 15:57:00,59.5,54.0,30.00,South,180,0.0,7.8,82,0.00,,,0.00,0.00,VWS V14.01,2013-03-30 22:57:00,
2013-03-30 16:00:00,59.7,53.9,30.00,WSW,248,4.9,7.8,81,0.00,,,0.00,0.00,VWS V14.01,2013-03-30 23:00:00,
2013-03-30 16:02:00,59.7,53.9,30.00,South,180,2.5,7.8,81,0.00,,,0.00,0.00,VWS V14.01,2013-03-30 23:02:00,
2013-03-30 16:07:00,60.1,54.2,30.00,WNW,292,1.6,10.1,81,0.00,,,0.00,0.00,VWS V14.01,2013-03-30 23:07:00,
2013-03-30 16:12:00,60.6,54.4,30.00,NNE,22,0.0,10.1,80,0.00,,,0.00,0.00,VWS V14.01,2013-03-30 23:12:00,
2013-03-30 16:15:00,60.6,54.4,30.00,South,180,0.0,10.1,80,0.00,,,0.00,0.00,VWS V14.01,2013-03-30 23:15:00,
2013-03-30 16:17:00,60.4,53.9,30.00,SSW,202,2.2,8.1,79,0.00,,,0.00,0.00,VWS V14.01,2013-03-30 23:17:00,
2013-03-30 16:23:00,59.9,53.7,30.00,SSW,202,5.8,8.1,80,0.00,,,0.00,0.00,VWS V14.01,2013-03-30 23:23:00,
2013-03-30 16:28:00,59.5,53.7,30.00,SW,225,3.6,8.1,81,0.00,,,0.00,0.00,VWS V14.01,2013-03-30 23:28:00,
2013-03-30 16:30:00,59.4,53.5,30.00,SSW,202,2.7,8.1,81,0.00,,,0.00,0.00,VWS V14.01,2013-03-30 23:30:00,
2013-03-30 16:33:00,59.2,53.4,30.00,SSE,158,3.4,7.6,81,0.00,,,0.00,0.00,VWS V14.01,2013-03-30 23:33:00,
2013-03-30 16:38:00,59.4,53.5,29.97,SSE,158,3.6,7.6,81,0.00,,,0.00,0.00,VWS V14.01,2013-03-30 23:38:00,
2013-03-30 16:43:00,59.5,53.7,29.97,WSW,248,0.0,7.6,81,0.00,,,0.00,0.00,VWS V14.01,2013-03-30 23:43:00,
2013-03-30 16:45:00,59.5,54.0,29.97,ESE,112,1.3,7.6,82,0.00,,,0.00,0.00,VWS V14.01,2013-03-30 23:45:00,
2013-03-30 16:48:00,59.5,53.7,29.97,South,180,1.1,4.9,81,0.00,,,0.00,0.00,VWS V14.01,2013-03-30 23:48:00,
2013-03-30 16:53:00,59.7,53.9,29.97,SSW,202,2.5,4.9,81,0.00,,,0.00,0.00,VWS V14.01,2013-03-30 23:53:00,
2013-03-30 16:58:00,59.7,54.2,29.97,West,270,2.7,4.9,82,0.00,,,0.00,0.00,VWS V14.01,2013-03-30 23:58:00,
2013-03-30 17:00:00,59.7,53.9,29.97,NW,315,0.0,4.9,81,0.00,,,0.00,0.00,VWS V14.01,2013-03-31 00:00:00,
2013-03-30 17:03:00,60.1,54.2,29.97,South,180,0.0,1.6,81,0.00,,,0.00,0.00,VWS V14.01,2013-03-31 00:03:00,
2013-03-30 17:08:00,60.3,53.0,30.00,East,90,2.7,6.3,77,0.00,,,0.00,0.00,VWS V14.01,2013-03-31 00:08:00,
2013-03-30 17:13:00,60.3,53.0,30.00,East,90,2.5,8.1,77,0.00,,,0.00,0.00,VWS V14.01,2013-03-31 00:13:00,
2013-03-30 17:15:00,60.3,53.4,30.00,ENE,68,3.8,8.1,78,0.00,,,0.00,0.00,VWS V14.01,2013-03-31 00:15:00,
2013-03-30 17:18:00,60.3,53.4,30.00,South,180,4.3,7.4,78,0.00,,,0.00,0.00,VWS V14.01,2013-03-31 00:18:00,
2013-03-30 17:23:00,59.9,53.4,30.00,SSE,158,2.7,7.4,79,0.00,,,0.00,0.00,VWS V14.01,2013-03-31 00:23:00,
2013-03-30 17:28:00,59.4,53.5,30.00,North,0,4.9,7.6,81,0.00,,,0.00,0.00,VWS V14.01,2013-03-31 00:28:00,
2013-03-30 17:30:00,59.2,53.4,30.00,NW,315,2.7,7.6,81,0.00,,,0.00,0.00,VWS V14.01,2013-03-31 00:30:00,
2013-03-30 17:33:00,59.0,53.5,30.00,SSE,158,2.2,4.0,82,0.00,,,0.00,0.00,VWS V14.01,2013-03-31 00:33:00,
2013-03-30 17:38:00,58.1,53.3,30.00,NNE,22,3.4,7.8,84,0.00,,,0.00,0.00,VWS V14.01,2013-03-31 00:38:00,
2013-03-30 17:44:00,57.4,53.9,30.00,NNE,22,5.4,10.3,88,0.00,,,0.00,0.00,VWS V14.01,2013-03-31 00:44:00,
2013-03-30 17:45:00,57.4,53.9,30.00,SSE,158,4.0,10.3,88,0.00,,,0.00,0.00,VWS V14.01,2013-03-31 00:45:00,
2013-03-30 17:49:00,57.2,54.0,30.00,SSW,202,4.0,10.3,89,0.00,,,0.00,0.00,VWS V14.01,2013-03-31 00:49:00,
2013-03-30 17:54:00,56.7,54.1,30.00,NE,45,8.1,11.0,91,0.00,,,0.00,0.00,VWS V14.01,2013-03-31 00:54:00,
2013-03-30 17:59:00,56.7,54.7,30.00,SE,135,3.1,11.0,93,0.00,,,0.00,0.00,VWS V14.01,2013-03-31 00:59:00,
2013-03-30 18:00:00,56.7,54.7,30.00,SSW,202,5.4,11.0,93,0.00,,,0.00,0.00,VWS V14.01,2013-03-31 01:00:00,
2013-03-30 18:04:00,56.5,54.8,30.00,South,180,5.4,10.3,94,0.00,,,0.00,0.00,VWS V14.01,2013-03-31 01:04:00,
2013-03-30 18:09:00,56.3,54.6,30.03,ESE,112,4.0,11.0,94,0.00,,,0.00,0.00,VWS V14.01,2013-03-31 01:09:00,
2013-03-30 18:14:00,56.3,54.9,30.03,SSW,202,4.3,11.0,95,0.00,,,0.00,0.00,VWS V14.01,2013-03-31 01:14:00,
2013-03-30 18:15:00,56.3,54.9,30.03,SSW,202,4.0,11.0,95,0.00,,,0.00,0.00,VWS V14.01,2013-03-31 01:15:00,
2013-03-30 18:19:00,56.3,55.2,30.03,South,180,3.6,5.4,96,0.00,,,0.00,0.00,VWS V14.01,2013-03-31 01:19:00,
2013-03-30 18:24:00,55.9,55.1,29.97,SSW,202,4.9,12.3,97,0.00,,,0.00,0.00,VWS V14.01,2013-03-31 01:24:00,
2013-03-30 18:29:00,55.9,55.4,29.97,SSE,158,0.0,12.3,98,0.00,,,0.00,0.00,VWS V14.01,2013-03-31 01:29:00,
2013-03-30 18:30:00,55.9,55.4,29.97,SSE,158,0.0,12.3,98,0.00,,,0.00,0.00,VWS V14.01,2013-03-31 01:30:00,
2013-03-30 18:34:00,55.9,55.1,29.97,East,90,0.0,2.5,97,0.00,,,0.00,0.00,VWS V14.01,2013-03-31 01:34:00,
2013-03-30 18:39:00,56.1,55.3,30.00,NE,45,0.0,3.1,97,0.00,,,0.00,0.00,VWS V14.01,2013-03-31 01:39:00,
2013-03-30 18:44:00,56.1,55.6,30.00,WNW,292,0.0,3.1,98,0.00,,,0.00,0.00,VWS V14.01,2013-03-31 01:44:00,
2013-03-30 18:45:00,56.1,55.6,30.00,West,270,1.1,3.1,98,0.00,,,0.00,0.00,VWS V14.01,2013-03-31 01:45:00,
2013-03-30 18:50:00,55.9,55.7,30.00,SSW,202,1.6,7.6,99,0.00,,,0.00,0.00,VWS V14.01,2013-03-31 01:50:00,
2013-03-30 18:55:00,55.9,55.7,30.03,WSW,248,2.9,8.1,99,0.00,,,0.00,0.00,VWS V14.01,2013-03-31 01:55:00,
2013-03-30 19:00:00,55.9,55.7,30.03,SSW,202,3.6,5.6,99,0.00,,,0.00,0.00,VWS V14.01,2013-03-31 02:00:00,
2013-03-30 19:05:00,55.9,55.9,30.03,South,180,5.4,12.3,100,0.00,,,0.00,0.00,VWS V14.01,2013-03-31 02:05:00,
2013-03-30 19:10:00,55.9,55.9,30.00,South,180,5.4,12.8,100,0.00,,,0.00,0.00,VWS V14.01,2013-03-31 02:10:00,
2013-03-30 19:15:00,56.1,55.8,30.00,SSW,202,3.6,5.4,99,0.00,,,0.00,0.00,VWS V14.01,2013-03-31 02:15:00,
2013-03-30 19:20:00,56.1,56.1,30.00,SSE,158,5.6,6.5,100,0.00,,,0.00,0.00,VWS V14.01,2013-03-31 02:20:00,
2013-03-30 19:25:00,56.1,55.8,30.03,SE,135,3.8,15.4,99,0.00,,,0.00,0.00,VWS V14.01,2013-03-31 02:25:00,
2013-03-30 19:30:00,56.1,56.1,30.03,WSW,248,2.7,15.4,100,0.00,,,0.00,0.00,VWS V14.01,2013-03-31 02:30:00,
2013-03-30 19:31:00,56.1,56.1,30.03,SSE,158,6.0,7.6,100,0.00,,,0.00,0.00,VWS V14.01,2013-03-31 02:31:00,
2013-03-30 19:37:00,56.1,56.1,30.03,SSW,202,6.0,10.1,100,0.00,,,0.00,0.00,VWS V14.01,2013-03-31 02:37:00,
2013-03-30 19:42:00,55.9,55.9,30.03,WNW,292,2.0,10.1,100,0.00,,,0.00,0.00,VWS V14.01,2013-03-31 02:42:00,
2013-03-30 19:45:00,55.9,55.9,30.03,WSW,248,5.8,10.1,100,0.00,,,0.00,0.00,VWS V14.01,2013-03-31 02:45:00,
2013-03-30 19:47:00,55.8,55.8,30.03,SSW,202,4.3,8.1,100,0.00,,,0.00,0.00,VWS V14.01,2013-03-31 02:47:00,
2013-03-30 19:52:00,55.8,55.8,30.03,South,180,4.5,8.1,100,0.00,,,0.00,0.00,VWS V14.01,2013-03-31 02:52:00,
2013-03-30 19:57:00,55.8,55.8,30.03,SSE,158,5.4,8.7,100,0.00,,,0.00,0.00,VWS V14.01,2013-03-31 02:57:00,
2013-03-30 20:00:00,55.8,55.8,30.03,NNW,338,1.1,8.7,100,0.00,,,0.00,0.00,VWS V14.01,2013-03-31 03:00:00,
2013-03-30 20:03:00,55.8,55.8,30.03,SSW,202,4.5,6.0,100,0.00,,,0.00,0.00,VWS V14.01,2013-03-31 03:03:00,
2013-03-30 20:08:00,55.8,55.8,30.03,SE,135,0.0,6.0,100,0.00,,,0.00,0.00,VWS V14.01,2013-03-31 03:08:00,
2013-03-30 20:13:00,55.9,55.9,30.03,SSE,158,0.0,6.3,100,0.00,,,0.00,0.00,VWS V14.01,2013-03-31 03:13:00,
2013-03-30 20:15:00,55.9,55.9,30.03,NNE,22,2.7,6.3,100,0.00,,,0.00,0.00,VWS V14.01,2013-03-31 03:15:00,
2013-03-30 20:18:00,56.1,56.1,30.03,SSW,202,2.7,2.7,100,0.00,,,0.00,0.00,VWS V14.01,2013-03-31 03:18:00,
2013-03-30 20:24:00,56.1,56.1,30.03,SE,135,0.0,3.8,100,0.04,,,0.04,0.00,VWS V14.01,2013-03-31 03:24:00,
2013-03-30 20:29:00,55.9,55.9,30.03,WSW,248,0.0,3.8,100,0.04,,,0.04,0.00,VWS V14.01,2013-03-31 03:29:00,
2013-03-30 20:30:00,55.9,55.9,30.03,WSW,248,0.0,3.8,100,0.04,,,0.04,0.00,VWS V14.01,2013-03-31 03:30:00,
2013-03-30 20:34:00,55.9,55.9,30.03,SSE,158,1.1,1.1,100,0.04,,,0.04,0.00,VWS V14.01,2013-03-31 03:34:00,
2013-03-30 20:39:00,55.8,55.8,30.00,SSW,202,1.6,2.2,100,0.04,,,0.04,0.00,VWS V14.01,2013-03-31 03:39:00,
2013-03-30 20:44:00,55.6,55.6,30.00,SSW,202,2.0,3.1,100,0.04,,,0.04,0.00,VWS V14.01,2013-03-31 03:44:00,
2013-03-30 20:45:00,55.6,55.6,30.00,SSW,202,0.0,3.1,100,0.04,,,0.04,0.00,VWS V14.01,2013-03-31 03:45:00,
2013-03-30 20:49:00,55.8,55.8,30.00,SE,135,0.9,2.7,100,0.04,,,0.04,0.00,VWS V14.01,2013-03-31 03:49:00,
2013-03-30 20:54:00,55.9,55.9,30.03,NE,45,4.0,4.0,100,0.04,,,0.04,0.00,VWS V14.01,2013-03-31 03:54:00,
2013-03-30 20:59:00,56.1,56.1,30.03,ENE,68,0.0,7.2,100,0.04,,,0.04,0.00,VWS V14.01,2013-03-31 03:59:00,
2013-03-30 21:00:00,56.1,56.1,30.03,East,90,1.6,2.0,100,0.04,,,0.04,0.00,VWS V14.01,2013-03-31 04:00:00,
2013-03-30 21:02:00,56.1,56.1,30.03,NE,45,4.0,4.0,100,0.04,,,0.04,0.00,VWS V14.01,2013-03-31 04:02:00,
2013-03-30 21:05:00,56.1,56.1,30.03,East,90,0.9,4.0,100,0.04,,,0.04,0.00,VWS V14.01,2013-03-31 04:05:00,
2013-03-30 21:10:00,56.1,56.1,30.03,NNE,22,2.5,4.0,100,0.04,,,0.04,0.00,VWS V14.01,2013-03-31 04:10:00,
2013-03-30 21:11:00,56.1,56.1,30.03,NE,45,2.9,4.7,100,0.04,,,0.04,0.00,VWS V14.01,2013-03-31 04:11:00,
2013-03-30 21:15:00,56.1,56.1,30.03,East,90,1.6,4.7,100,0.04,,,0.04,0.00,VWS V14.01,2013-03-31 04:15:00,
2013-03-30 21:18:00,56.1,56.1,30.03,ENE,68,0.0,3.1,100,0.04,,,0.04,0.00,VWS V14.01,2013-03-31 04:18:00,
2013-03-30 21:23:00,55.9,55.9,30.03,East,90,2.7,3.6,100,0.04,,,0.04,0.00,VWS V14.01,2013-03-31 04:23:00,
2013-03-30 21:28:00,55.9,55.9,30.03,North,0,4.0,4.7,100,0.04,,,0.04,0.00,VWS V14.01,2013-03-31 04:28:00,
2013-03-30 21:30:00,55.9,55.9,30.03,SE,135,3.4,6.5,100,0.04,,,0.04,0.00,VWS V14.01,2013-03-31 04:30:00,
2013-03-30 21:33:00,55.9,55.9,30.03,ESE,112,1.3,3.6,100,0.00,,,0.04,0.00,VWS V14.01,2013-03-31 04:33:00,
2013-03-30 21:38:00,55.9,55.9,30.03,SSE,158,5.4,5.8,100,0.00,,,0.04,0.00,VWS V14.01,2013-03-31 04:38:00,
2013-03-30 21:43:00,55.9,55.9,30.03,SSE,158,0.0,5.8,100,0.00,,,0.04,0.00,VWS V14.01,2013-03-31 04:43:00,
2013-03-30 21:45:00,55.9,55.9,30.03,SSE,158,0.9,5.8,100,0.00,,,0.04,0.00,VWS V14.01,2013-03-31 04:45:00,
2013-03-30 21:48:00,55.8,55.8,30.03,SSE,158,0.9,4.7,100,0.00,,,0.04,0.00,VWS V14.01,2013-03-31 04:48:00,
2013-03-30 21:53:00,55.8,55.8,30.03,North,0,2.2,4.7,100,0.00,,,0.04,0.00,VWS V14.01,2013-03-31 04:53:00,
2013-03-30 21:58:00,55.8,55.8,30.03,NE,45,2.0,6.3,100,0.00,,,0.04,0.00,VWS V14.01,2013-03-31 04:58:00,
2013-03-30 22:00:00,55.8,55.8,30.03,SSE,158,0.0,6.3,100,0.00,,,0.04,0.00,VWS V14.01,2013-03-31 05:00:00,
2013-03-30 22:03:00,55.8,55.8,30.03,SSW,202,0.0,3.1,100,0.04,,,0.08,0.00,VWS V14.01,2013-03-31 05:03:00,
2013-03-30 22:08:00,55.8,55.8,30.03,SE,135,2.2,5.6,100,0.04,,,0.08,0.00,VWS V14.01,2013-03-31 05:08:00,
2013-03-30 22:13:00,55.8,55.8,30.03,SE,135,6.3,6.3,100,0.04,,,0.08,0.00,VWS V14.01,2013-03-31 05:13:00,
2013-03-30 22:15:00,55.9,55.9,30.03,SSE,158,5.6,7.2,100,0.04,,,0.08,0.00,VWS V14.01,2013-03-31 05:15:00,
2013-03-30 22:18:00,55.9,55.9,30.03,ESE,112,4.3,8.7,100,0.04,,,0.08,0.00,VWS V14.01,2013-03-31 05:18:00,
2013-03-30 22:23:00,55.9,55.9,30.03,East,90,4.0,8.7,100,0.04,,,0.08,0.00,VWS V14.01,2013-03-31 05:23:00,
2013-03-30 22:28:00,55.9,55.9,30.03,NE,45,3.8,8.7,100,0.04,,,0.08,0.00,VWS V14.01,2013-03-31 05:28:00,
2013-03-30 22:30:00,55.9,55.9,30.03,SSW,202,1.1,8.7,100,0.04,,,0.08,0.00,VWS V14.01,2013-03-31 05:30:00,
2013-03-30 22:34:00,55.8,55.8,30.03,NW,315,3.1,8.1,100,0.04,,,0.08,0.00,VWS V14.01,2013-03-31 05:34:00,
2013-03-30 22:39:00,55.8,55.8,30.03,NE,45,0.0,8.1,100,0.04,,,0.08,0.00,VWS V14.01,2013-03-31 05:39:00,
2013-03-30 22:44:00,55.8,55.8,30.03,SSW,202,0.0,8.1,100,0.04,,,0.08,0.00,VWS V14.01,2013-03-31 05:44:00,
2013-03-30 22:45:00,55.8,55.8,30.03,SSE,158,3.8,8.1,100,0.04,,,0.08,0.00,VWS V14.01,2013-03-31 05:45:00,
2013-03-30 22:49:00,55.8,55.8,30.03,SW,225,3.6,6.0,100,0.04,,,0.08,0.00,VWS V14.01,2013-03-31 05:49:00,
2013-03-30 22:54:00,55.8,55.8,30.03,North,0,0.0,6.0,100,0.04,,,0.08,0.00,VWS V14.01,2013-03-31 05:54:00,
2013-03-30 22:59:00,55.9,55.9,30.03,NNE,22,3.4,6.0,100,0.04,,,0.08,0.00,VWS V14.01,2013-03-31 05:59:00,
2013-03-30 23:00:00,55.9,55.9,30.03,East,90,2.0,6.0,100,0.04,,,0.08,0.00,VWS V14.01,2013-03-31 06:00:00,
2013-03-30 23:04:00,55.9,55.9,30.03,East,90,0.0,4.0,100,0.04,,,0.08,0.00,VWS V14.01,2013-03-31 06:04:00,
2013-03-30 23:09:00,55.9,55.9,30.03,ENE,68,2.7,7.4,100,0.09,,,0.13,0.00,VWS V14.01,2013-03-31 06:09:00,
2013-03-30 23:14:00,55.9,55.9,30.03,WSW,248,2.9,7.4,100,0.09,,,0.13,0.00,VWS V14.01,2013-03-31 06:14:00,
2013-03-30 23:15:00,55.9,55.9,30.03,SW,225,4.0,7.4,100,0.09,,,0.13,0.00,VWS V14.01,2013-03-31 06:15:00,
2013-03-30 23:19:00,55.8,55.8,30.03,SSE,158,2.9,6.3,100,0.05,,,0.13,0.00,VWS V14.01,2013-03-31 06:19:00,
2013-03-30 23:24:00,55.9,55.9,30.03,East,90,2.9,6.3,100,0.05,,,0.13,0.00,VWS V14.01,2013-03-31 06:24:00,
2013-03-30 23:30:00,55.9,55.9,30.03,East,90,4.0,8.5,100,0.05,,,0.13,0.00,VWS V14.01,2013-03-31 06:30:00,
2013-03-30 23:35:00,55.9,55.9,30.03,WSW,248,3.8,6.5,100,0.05,,,0.13,0.00,VWS V14.01,2013-03-31 06:35:00,
2013-03-30 23:40:00,55.9,55.9,30.03,North,0,2.9,6.5,100,0.05,,,0.13,0.00,VWS V14.01,2013-03-31 06:40:00,
2013-03-30 23:45:00,55.9,55.9,30.03,ESE,112,0.0,0.0,100,0.09,,,0.17,0.00,VWS V14.01,2013-03-31 06:45:00,
2013-03-30 23:50:00,55.9,55.9,30.03,SSE,158,0.0,5.6,100,0.09,,,0.17,0.00,VWS V14.01,2013-03-31 06:50:00,
2013-03-30 23:55:00,55.8,55.8,30.00,South,180,6.5,8.1,100,0.09,,,0.17,0.00,VWS V14.01,2013-03-31 06:55:00,